Terminal Aerodrome Forecast
Issued by NWS Grand Forks, ND

Home | Current Version | Previous Version | Text Only | Print | Product List | Glossary On
Versions: 1 2 3 4 5 6 7 8 9 10 11 12 13 14 15 16 17 18
000
FTUS43 KFGF 031524 AAA
TAFFAR
TAF AMD
KFAR 031524Z 0315/0412 15014KT P6SM OVC012
      TEMPO 0315/0316 SCT012
     FM031700 15016G24KT P6SM SKC=

USA.gov is the U.S. government's official web portal to all federal, state and local government web resources and services.